Bel Aire, Kansas
Current Conditions -  °F | °C
As of 7:54 PM on Monday 24 Nov 2014 (Local Time) from KAAO Reporting Station
Clear Clear  
Wind Chill: 31°   Ceiling: Unl
Heat Index: 36°   Visibility: 10mi
Dew Point: 20°   Wind: 6mph
Humidity: 52%   Direction: 310°NW
Pressure: 30.06"   Gusts: NA
Location:  37.7646°N, 97.2186°W
Report Text: KAAO 250154Z AUTO 31005KT 10SM CLR 02/M07 A3006 RMK AO2 SLP192 T00221067
Loading
Personal Weather Stations






























Interactive Weather Map New forecast layout! Learn more

10-Day Weather Forecast

Advertisements
Track Severe Weather on mobile